Time;durP1;ratioP1;P1;durP2;ratioP2;P2;SDS_P1;SDS_P2;PMS_P1;PMS_P2;Temp;Humidity;BMP_temperature;BMP_pressure;BME280_temperature;BME280_humidity;BME280_pressure;Samples;Min_cycle;Max_cycle;Signal;HPM_P1;HPM_P2
2023/03/14 00:02:04;;;;;;;11.40;6.83;;;7.90;97.50;;;;;;5096239;28;20264;-87
2023/03/14 00:04:29;;;;;;;9.33;7.20;;;7.70;97.80;;;;;;5096007;28;20207;-83
2023/03/14 00:06:55;;;;;;;9.00;6.47;;;7.60;97.80;;;;;;5093792;28;20178;-87
2023/03/14 00:09:21;;;;;;;10.43;7.17;;;7.60;97.80;;;;;;5093632;28;20217;-89
2023/03/14 00:11:46;;;;;;;9.93;6.70;;;7.50;97.90;;;;;;5095721;28;20215;-86
2023/03/14 00:14:12;;;;;;;8.77;6.80;;;7.50;97.90;;;;;;5094862;28;20178;-88
2023/03/14 00:16:38;;;;;;;9.23;7.07;;;7.60;97.80;;;;;;5097539;28;20265;-87
2023/03/14 00:19:03;;;;;;;8.03;7.07;;;7.60;97.80;;;;;;5099217;28;20517;-84
2023/03/14 00:21:29;;;;;;;9.27;6.80;;;7.40;97.80;;;;;;5094803;28;20170;-87
2023/03/14 00:23:55;;;;;;;13.67;6.63;;;7.30;98.00;;;;;;5095716;28;20625;-87
2023/03/14 00:26:21;;;;;;;10.80;6.87;;;7.40;98.00;;;;;;5094678;28;20173;-87
2023/03/14 00:28:51;;;;;;;10.00;6.40;;;7.40;98.10;;;;;;5093603;28;20237;-81
2023/03/14 00:31:17;;;;;;;7.57;5.97;;;7.40;98.10;;;;;;5094940;28;20162;-86
2023/03/14 00:33:44;;;;;;;8.53;5.73;;;7.50;98.10;;;;;;5096978;28;20290;-85
2023/03/14 00:36:13;;;;;;;7.53;5.73;;;7.40;98.30;;;;;;5103509;28;20181;-81
2023/03/14 00:38:40;;;;;;;9.10;5.27;;;7.70;98.10;;;;;;5102855;28;20173;-87
2023/03/14 00:41:12;;;;;;;8.23;5.43;;;7.80;97.90;;;;;;5094232;28;20257;-87
2023/03/14 00:43:38;;;;;;;6.77;5.10;;;7.80;97.70;;;;;;5087292;28;20215;-88
2023/03/14 00:46:04;;;;;;;5.93;4.40;;;7.80;97.80;;;;;;5073074;28;20206;-88
2023/03/14 00:48:30;;;;;;;7.57;5.20;;;7.70;98.10;;;;;;5073674;28;20671;-88
2023/03/14 00:50:56;;;;;;;5.47;4.97;;;7.80;98.00;;;;;;5072902;28;20163;-86
2023/03/14 00:53:22;;;;;;;7.37;5.53;;;7.80;98.00;;;;;;5073056;28;20215;-88
2023/03/14 00:55:48;;;;;;;9.83;5.43;;;7.70;98.10;;;;;;5073540;28;20178;-85
2023/03/14 00:58:17;;;;;;;6.97;4.60;;;7.70;98.10;;;;;;5073387;28;20236;-83
2023/03/14 01:00:43;;;;;;;6.53;5.13;;;7.70;98.00;;;;;;5072294;28;20169;-81
2023/03/14 01:03:09;;;;;;;5.57;5.00;;;7.70;98.10;;;;;;5072171;28;20167;-79
2023/03/14 01:05:35;;;;;;;8.40;4.93;;;7.70;98.20;;;;;;5072595;28;20172;-76
2023/03/14 01:08:01;;;;;;;5.30;4.20;;;7.80;98.20;;;;;;5073366;28;20563;-78
2023/03/14 01:10:27;;;;;;;5.63;4.17;;;7.70;98.30;;;;;;5057437;28;20197;-76
2023/03/14 01:12:53;;;;;;;5.40;4.30;;;7.70;98.30;;;;;;5078382;28;20236;-77
2023/03/14 01:15:18;;;;;;;6.47;3.90;;;7.80;98.40;;;;;;5080229;28;20174;-79
2023/03/14 01:17:44;;;;;;;6.37;4.20;;;7.80;98.40;;;;;;5092905;28;20197;-77
2023/03/14 01:20:13;;;;;;;5.20;4.27;;;7.80;98.20;;;;;;5076415;28;20171;-79
2023/03/14 01:22:40;;;;;;;6.03;4.77;;;8.00;98.20;;;;;;5094500;28;20182;-77
2023/03/14 01:25:08;;;;;;;4.77;4.03;;;8.00;98.10;;;;;;5079157;28;20174;-82
2023/03/14 01:27:34;;;;;;;4.83;4.33;;;8.00;98.40;;;;;;5076487;28;20627;-86
2023/03/14 01:30:00;;;;;;;6.20;3.83;;;7.90;98.40;;;;;;5076208;28;20179;-85
2023/03/14 01:32:26;;;;;;;6.43;4.27;;;8.00;98.40;;;;;;5076614;28;20171;-85
2023/03/14 01:34:51;;;;;;;5.10;4.10;;;8.20;98.20;;;;;;5079018;28;20538;-85
2023/03/14 01:37:18;;;;;;;4.80;4.00;;;8.30;98.10;;;;;;5078194;28;20177;-76
2023/03/14 01:39:43;;;;;;;4.47;4.07;;;8.20;98.30;;;;;;5087222;28;20186;-75
2023/03/14 01:42:09;;;;;;;5.60;3.60;;;8.20;98.50;;;;;;5077046;28;20208;-78
2023/03/14 01:45:26;;;;;;;5.30;3.77;;;8.20;98.50;;;;;;5076471;28;20276;-74
2023/03/14 01:47:52;;;;;;;7.30;3.77;;;8.20;98.50;;;;;;5034282;28;20262;-87
2023/03/14 01:50:17;;;;;;;4.10;3.70;;;8.10;98.40;;;;;;5076644;28;20178;-79
2023/03/14 01:52:48;;;;;;;7.30;4.03;;;8.10;98.50;;;;;;5076960;28;20256;-77
2023/03/14 01:55:18;;;;;;;4.80;3.90;;;8.20;98.70;;;;;;5076538;28;20171;-77
2023/03/14 01:57:49;;;;;;;5.63;3.60;;;8.20;98.40;;;;;;5076362;28;20565;-74
2023/03/14 02:00:21;;;;;;;5.40;4.17;;;8.20;98.40;;;;;;5076803;28;20171;-89
2023/03/14 02:02:52;;;;;;;5.93;3.73;;;8.10;98.40;;;;;;5076169;28;20166;-87
2023/03/14 02:05:21;;;;;;;4.93;4.20;;;8.10;98.50;;;;;;5077217;28;20199;-83
2023/03/14 02:07:51;;;;;;;4.30;3.90;;;8.10;98.60;;;;;;5059302;28;20200;-86
2023/03/14 02:10:20;;;;;;;6.60;4.07;;;8.10;98.70;;;;;;5082136;28;20174;-87
2023/03/14 02:12:48;;;;;;;8.10;4.10;;;8.00;98.70;;;;;;5073671;28;20255;-89
2023/03/14 02:15:15;;;;;;;4.47;3.83;;;8.00;98.90;;;;;;5082865;28;20257;-89
2023/03/14 02:17:43;;;;;;;3.70;3.30;;;8.00;98.80;;;;;;5057770;28;20195;-83
2023/03/14 02:20:40;;;;;;;7.57;4.03;;;8.20;98.90;;;;;;5075144;28;20175;-81
2023/03/14 02:23:06;;;;;;;4.53;3.53;;;8.20;98.60;;;;;;4988000;28;20191;-80
2023/03/14 02:25:53;;;;;;;5.07;3.73;;;8.40;98.40;;;;;;5075359;28;20168;-82
2023/03/14 02:28:19;;;;;;;4.53;4.13;;;8.50;98.20;;;;;;5076641;28;20259;-77
2023/03/14 02:30:46;;;;;;;5.50;4.00;;;8.40;98.20;;;;;;5079542;28;20178;-83
2023/03/14 02:33:15;;;;;;;5.47;4.00;;;8.40;98.30;;;;;;5074750;28;20653;-80
2023/03/14 02:35:50;;;;;;;4.07;3.43;;;8.30;98.60;;;;;;5075442;28;20182;-79
2023/03/14 02:38:36;;;;;;;3.73;3.43;;;8.40;98.40;;;;;;5075624;28;20642;-80
2023/03/14 02:41:03;;;;;;;6.90;3.50;;;8.30;98.40;;;;;;5076883;28;20569;-78
2023/03/14 02:43:29;;;;;;;5.93;3.93;;;8.30;98.50;;;;;;5088978;28;20217;-77
2023/03/14 02:45:55;;;;;;;4.20;3.43;;;8.20;98.40;;;;;;5061246;28;20167;-80
2023/03/14 02:48:26;;;;;;;5.20;4.13;;;8.10;98.70;;;;;;5078803;28;20203;-75
2023/03/14 02:50:55;;;;;;;5.37;4.20;;;8.20;98.70;;;;;;5083671;28;20241;-77
2023/03/14 02:53:26;;;;;;;4.00;3.60;;;8.10;98.80;;;;;;5093952;28;20171;-77
2023/03/14 02:55:52;;;;;;;3.53;3.30;;;8.30;98.60;;;;;;5093486;28;20190;-75
2023/03/14 02:58:19;;;;;;;5.23;3.50;;;8.30;98.40;;;;;;5079649;28;20646;-77
2023/03/14 03:00:44;;;;;;;4.07;3.50;;;8.30;98.70;;;;;;5074400;28;20629;-85
2023/03/14 03:03:10;;;;;;;5.27;3.53;;;8.30;98.70;;;;;;5074162;28;20175;-78
2023/03/14 03:05:36;;;;;;;4.57;3.70;;;8.30;98.60;;;;;;5073857;28;20167;-80
2023/03/14 03:08:03;;;;;;;4.53;3.50;;;8.30;98.60;;;;;;5075017;28;20218;-79
2023/03/14 03:10:29;;;;;;;3.60;3.30;;;8.20;98.50;;;;;;5074711;28;20196;-79
2023/03/14 03:12:54;;;;;;;3.60;3.30;;;8.10;98.80;;;;;;5074454;28;20194;-81
2023/03/14 03:15:20;;;;;;;3.93;3.50;;;8.10;99.00;;;;;;5074806;28;20534;-77
2023/03/14 03:17:47;;;;;;;4.10;3.50;;;8.10;99.10;;;;;;5074069;28;20276;-79
2023/03/14 03:20:13;;;;;;;3.17;2.90;;;8.10;99.00;;;;;;5074335;28;20178;-77
2023/03/14 03:22:39;;;;;;;3.83;3.33;;;8.20;98.90;;;;;;5074111;28;20193;-78
2023/03/14 03:25:06;;;;;;;3.27;3.07;;;8.10;98.70;;;;;;5079934;28;20174;-77
2023/03/14 03:27:34;;;;;;;3.70;3.17;;;8.00;99.00;;;;;;5087234;28;20175;-77
2023/03/14 03:30:00;;;;;;;6.00;3.50;;;8.10;99.10;;;;;;5081071;28;20178;-85
2023/03/14 03:32:27;;;;;;;5.10;3.57;;;8.10;98.90;;;;;;5075807;28;20170;-87
2023/03/14 03:34:52;;;;;;;3.77;3.40;;;8.20;99.00;;;;;;5074238;28;20175;-83
2023/03/14 03:37:18;;;;;;;3.80;3.30;;;8.00;99.00;;;;;;5056222;28;20224;-83
2023/03/14 03:39:44;;;;;;;4.77;3.47;;;8.00;99.10;;;;;;5074242;28;20182;-86
2023/03/14 03:42:10;;;;;;;4.03;3.37;;;7.90;99.10;;;;;;5074467;28;20202;-83
2023/03/14 03:44:36;;;;;;;3.20;2.90;;;7.90;99.50;;;;;;5073740;28;20218;-84
2023/03/14 03:47:02;;;;;;;3.33;3.13;;;7.90;99.50;;;;;;5075678;28;20568;-77
2023/03/14 03:49:32;;;;;;;4.13;3.40;;;7.90;99.60;;;;;;5078039;28;20210;-85
2023/03/14 03:51:58;;;;;;;3.43;3.10;;;7.90;99.60;;;;;;5073546;28;20551;-87
2023/03/14 03:54:24;;;;;;;3.17;2.77;;;7.70;99.60;;;;;;5073810;28;20182;-83
2023/03/14 03:56:50;;;;;;;3.50;3.30;;;7.80;99.80;;;;;;5073959;28;20200;-85
2023/03/14 03:59:16;;;;;;;3.27;3.00;;;7.80;99.50;;;;;;5073267;28;20202;-85
2023/03/14 04:01:42;;;;;;;4.33;3.33;;;7.80;99.60;;;;;;5055601;28;20603;-81
2023/03/14 04:04:08;;;;;;;3.40;3.10;;;7.80;99.60;;;;;;5073229;28;20203;-81
2023/03/14 04:06:34;;;;;;;5.10;2.87;;;7.80;99.80;;;;;;5073027;28;20257;-81
2023/03/14 04:09:00;;;;;;;5.00;2.87;;;7.80;99.70;;;;;;5073141;28;20202;-77
2023/03/14 04:11:26;;;;;;;2.63;2.43;;;7.80;99.70;;;;;;5073019;28;20167;-78
2023/03/14 04:13:52;;;;;;;3.50;3.13;;;7.80;99.60;;;;;;5078371;28;20171;-76
2023/03/14 04:16:21;;;;;;;3.47;3.20;;;7.70;99.60;;;;;;5080447;28;20654;-74
2023/03/14 04:18:47;;;;;;;3.37;3.07;;;7.60;99.90;;;;;;5075499;28;20182;-81
2023/03/14 04:21:13;;;;;;;3.60;2.83;;;7.70;99.90;;;;;;5074083;28;20178;-80
2023/03/14 04:23:38;;;;;;;3.30;2.90;;;7.80;99.90;;;;;;5079505;28;20170;-80
2023/03/14 04:26:04;;;;;;;3.70;3.40;;;7.90;99.60;;;;;;5085740;28;20242;-78
2023/03/14 04:28:30;;;;;;;3.77;3.03;;;7.90;99.50;;;;;;5088263;28;20209;-81
2023/03/14 04:30:56;;;;;;;3.10;2.80;;;7.80;99.80;;;;;;5075456;28;20569;-79
2023/03/14 04:33:22;;;;;;;4.40;3.17;;;7.80;99.80;;;;;;5082739;28;20296;-77
2023/03/14 04:35:49;;;;;;;3.87;3.47;;;7.90;99.90;;;;;;5076142;28;20174;-76
2023/03/14 04:38:16;;;;;;;3.90;3.00;;;8.00;99.50;;;;;;5072936;28;20265;-75
2023/03/14 04:40:42;;;;;;;5.93;3.13;;;8.00;99.70;;;;;;5072323;28;20171;-77
2023/03/14 04:43:09;;;;;;;3.17;2.90;;;8.00;99.80;;;;;;5072504;28;20215;-78
2023/03/14 04:45:35;;;;;;;3.30;3.00;;;8.10;99.80;;;;;;5073225;28;20259;-75
2023/03/14 04:48:01;;;;;;;3.20;2.67;;;8.20;99.70;;;;;;5072222;28;20575;-81
2023/03/14 04:50:27;;;;;;;2.93;2.60;;;8.20;99.80;;;;;;5072903;28;20194;-81
2023/03/14 04:52:52;;;;;;;2.53;2.33;;;8.20;99.60;;;;;;5072862;28;20186;-83
2023/03/14 04:55:18;;;;;;;2.60;2.40;;;8.20;99.80;;;;;;5073940;28;20296;-82
2023/03/14 04:57:44;;;;;;;3.07;2.73;;;8.10;99.90;;;;;;5077234;28;20194;-85
2023/03/14 05:00:11;;;;;;;7.00;2.47;;;8.10;99.90;;;;;;5076385;28;20721;-78
2023/03/14 05:02:36;;;;;;;2.80;2.60;;;8.30;99.90;;;;;;5076733;28;20207;-84
2023/03/14 05:05:02;;;;;;;3.90;2.80;;;8.40;99.90;;;;;;5076723;28;20205;-83
2023/03/14 05:07:28;;;;;;;7.30;4.87;;;8.40;99.80;;;;;;5076921;28;20202;-86
2023/03/14 05:09:54;;;;;;;5.80;5.17;;;8.40;99.80;;;;;;5077028;28;20745;-79
2023/03/14 05:12:20;;;;;;;6.50;3.10;;;8.50;99.90;;;;;;5077396;28;20512;-77
2023/03/14 05:14:46;;;;;;;3.17;2.90;;;8.50;99.90;;;;;;5080963;28;20198;-78
2023/03/14 05:17:14;;;;;;;3.87;2.80;;;8.70;99.80;;;;;;5087587;28;20171;-80
2023/03/14 05:19:43;;;;;;;3.87;2.73;;;8.70;99.60;;;;;;5080220;28;20167;-87
2023/03/14 05:22:09;;;;;;;4.03;3.63;;;8.80;99.40;;;;;;5079844;28;20668;-86
2023/03/14 05:24:35;;;;;;;3.73;3.43;;;8.70;99.90;;;;;;5080994;28;20171;-83
2023/03/14 05:27:01;;;;;;;4.33;3.03;;;8.60;99.90;;;;;;5083595;28;20238;-89
2023/03/14 05:29:27;;;;;;;2.73;2.53;;;8.60;99.90;;;;;;5072998;28;20214;-77
2023/03/14 05:31:53;;;;;;;2.80;2.60;;;8.70;99.90;;;;;;5084643;28;20175;-78
2023/03/14 05:34:18;;;;;;;3.20;2.90;;;8.80;99.90;;;;;;5062684;28;20175;-78
2023/03/14 05:36:44;;;;;;;5.33;3.43;;;8.70;99.90;;;;;;5077392;28;20210;-84
2023/03/14 05:39:10;;;;;;;2.97;2.77;;;8.70;99.90;;;;;;5077536;28;20182;-84
2023/03/14 05:41:35;;;;;;;3.73;2.97;;;8.70;99.90;;;;;;5076500;28;20179;-78
2023/03/14 05:44:01;;;;;;;3.00;2.80;;;8.90;99.90;;;;;;5076003;28;20344;-83
2023/03/14 05:46:27;;;;;;;4.17;2.90;;;8.90;99.90;;;;;;5080074;28;20179;-78
2023/03/14 05:48:53;;;;;;;4.77;2.90;;;9.00;99.90;;;;;;5081988;28;20720;-86
2023/03/14 05:51:18;;;;;;;4.70;2.60;;;9.00;99.90;;;;;;5077940;28;20175;-77
2023/03/14 05:53:44;;;;;;;3.53;2.60;;;9.20;99.90;;;;;;5076813;28;20206;-83
2023/03/14 05:56:10;;;;;;;4.43;3.57;;;9.30;99.80;;;;;;5077245;28;20692;-83
2023/03/14 05:58:35;;;;;;;3.87;2.93;;;9.30;99.90;;;;;;5090028;28;20186;-79
2023/03/14 06:01:03;;;;;;;8.83;3.27;;;9.30;99.90;;;;;;5079869;28;20250;-77
2023/03/14 06:03:29;;;;;;;9.83;4.33;;;9.20;99.90;;;;;;5084378;28;20178;-81
2023/03/14 06:05:55;;;;;;;4.47;3.40;;;9.20;99.90;;;;;;5091879;28;20175;-75
2023/03/14 06:08:20;;;;;;;5.03;3.70;;;9.20;99.90;;;;;;5087108;28;20211;-76
2023/03/14 06:10:46;;;;;;;6.17;3.40;;;9.40;99.90;;;;;;5078071;28;20627;-78
2023/03/14 06:13:12;;;;;;;4.73;3.07;;;9.50;99.90;;;;;;5058552;28;20183;-84
2023/03/14 06:15:37;;;;;;;3.13;2.60;;;9.60;99.90;;;;;;5077147;28;20258;-79
2023/03/14 06:18:03;;;;;;;3.60;2.60;;;9.70;99.90;;;;;;5086331;28;20171;-81
2023/03/14 06:20:29;;;;;;;5.93;2.90;;;9.70;99.90;;;;;;5076767;28;20176;-82
2023/03/14 06:22:55;;;;;;;2.73;2.53;;;9.80;99.90;;;;;;5076186;28;20317;-80
2023/03/14 06:25:21;;;;;;;3.13;2.83;;;9.80;99.90;;;;;;5075414;28;20228;-77
2023/03/14 06:27:47;;;;;;;2.90;2.67;;;9.80;99.90;;;;;;5083075;28;20645;-76
2023/03/14 06:30:13;;;;;;;2.97;2.77;;;9.80;99.90;;;;;;5085618;28;20348;-78
2023/03/14 06:32:39;;;;;;;4.40;3.80;;;9.90;99.90;;;;;;5065874;28;20714;-77
2023/03/14 06:35:05;;;;;;;6.23;3.07;;;9.90;99.90;;;;;;5078853;28;20236;-84
2023/03/14 06:37:31;;;;;;;3.77;3.20;;;10.00;99.90;;;;;;5075896;28;20176;-76
2023/03/14 06:39:56;;;;;;;5.00;3.00;;;10.00;99.90;;;;;;5087125;28;20189;-79
2023/03/14 06:42:22;;;;;;;5.07;3.80;;;10.10;99.90;;;;;;5092136;28;20249;-75
2023/03/14 06:44:49;;;;;;;3.10;2.90;;;10.30;99.90;;;;;;5079233;28;20605;-76
2023/03/14 06:47:14;;;;;;;4.67;3.20;;;10.50;99.90;;;;;;5095610;28;20260;-86
2023/03/14 06:49:40;;;;;;;4.30;3.20;;;10.60;99.90;;;;;;5089075;28;20385;-88
2023/03/14 06:52:06;;;;;;;3.40;3.10;;;10.70;99.90;;;;;;5095911;28;20643;-86
2023/03/14 06:54:32;;;;;;;3.10;2.87;;;10.70;99.90;;;;;;5096741;28;20182;-85
2023/03/14 06:56:57;;;;;;;9.13;6.57;;;10.60;99.90;;;;;;5096219;28;20188;-88
2023/03/14 06:59:23;;;;;;;3.97;3.53;;;10.60;99.90;;;;;;5096631;28;20182;-83
2023/03/14 07:01:50;;;;;;;4.47;3.20;;;10.90;99.90;;;;;;5096205;28;20179;-86
2023/03/14 07:04:17;;;;;;;5.17;3.60;;;11.00;99.90;;;;;;5099477;28;20700;-77
2023/03/14 07:06:44;;;;;;;6.47;3.87;;;11.00;99.90;;;;;;5105778;28;20174;-77
2023/03/14 07:09:11;;;;;;;8.27;4.50;;;11.10;99.90;;;;;;5095084;28;20665;-83
2023/03/14 07:11:37;;;;;;;6.80;3.23;;;11.10;99.90;;;;;;5094369;28;20181;-82
2023/03/14 07:14:03;;;;;;;4.67;3.00;;;11.30;99.90;;;;;;5095105;28;20185;-88
2023/03/14 07:16:31;;;;;;;3.83;2.90;;;11.40;99.90;;;;;;5096214;28;20176;-84
2023/03/14 07:18:57;;;;;;;3.70;3.33;;;11.50;99.90;;;;;;5101937;28;20203;-79
2023/03/14 07:21:23;;;;;;;4.83;2.77;;;11.50;99.90;;;;;;5083497;28;20233;-80
2023/03/14 07:23:49;;;;;;;4.60;3.07;;;11.60;99.90;;;;;;5097488;28;20180;-87
2023/03/14 07:26:15;;;;;;;3.57;2.67;;;11.70;99.90;;;;;;5097102;28;20175;-88
2023/03/14 07:28:41;;;;;;;7.47;3.40;;;11.90;99.90;;;;;;5100025;28;20608;-76
2023/03/14 07:31:07;;;;;;;4.13;2.53;;;12.00;99.90;;;;;;5109936;28;20172;-85
2023/03/14 07:33:33;;;;;;;4.57;2.60;;;12.00;99.90;;;;;;5113398;28;20181;-79
2023/03/14 07:35:59;;;;;;;2.93;2.30;;;12.00;99.90;;;;;;5091740;28;20550;-78
2023/03/14 07:38:24;;;;;;;5.87;3.53;;;12.10;99.90;;;;;;5084182;28;20185;-87
2023/03/14 07:40:50;;;;;;;5.30;3.90;;;12.00;99.90;;;;;;5109858;28;20200;-76
2023/03/14 07:43:16;;;;;;;2.83;2.60;;;12.10;99.90;;;;;;5096263;28;20619;-84
2023/03/14 07:45:46;;;;;;;5.33;2.90;;;12.20;99.90;;;;;;5118091;28;20283;-85
2023/03/14 07:48:12;;;;;;;3.50;2.87;;;12.40;99.90;;;;;;5114743;28;20250;-79
2023/03/14 07:50:37;;;;;;;3.63;2.50;;;12.40;99.90;;;;;;5114390;28;20200;-84
2023/03/14 07:53:03;;;;;;;2.87;2.67;;;12.50;99.90;;;;;;5114870;28;20260;-77
2023/03/14 07:55:29;;;;;;;2.70;2.50;;;12.50;99.90;;;;;;5116174;28;20180;-87
2023/03/14 07:57:55;;;;;;;4.90;2.63;;;12.70;99.90;;;;;;5114409;28;20189;-80
2023/03/14 08:00:21;;;;;;;4.97;3.10;;;12.90;99.90;;;;;;5115796;28;20260;-80
2023/03/14 08:02:47;;;;;;;3.50;2.63;;;13.00;99.90;;;;;;5115833;28;20203;-85
2023/03/14 08:05:13;;;;;;;2.57;2.37;;;13.00;99.90;;;;;;5115669;28;20162;-75
2023/03/14 08:07:38;;;;;;;2.67;2.43;;;13.10;99.90;;;;;;5114981;28;20690;-80
2023/03/14 08:10:05;;;;;;;2.60;2.20;;;13.10;99.90;;;;;;5119512;28;20573;-79
2023/03/14 08:12:31;;;;;;;3.70;2.50;;;13.40;99.90;;;;;;5126618;28;20173;-76
2023/03/14 08:14:57;;;;;;;2.77;2.20;;;13.50;99.90;;;;;;5117248;28;20238;-84
2023/03/14 08:17:22;;;;;;;2.20;2.10;;;13.50;99.90;;;;;;5115748;28;20186;-80
2023/03/14 08:19:48;;;;;;;4.33;2.30;;;13.60;99.90;;;;;;5115857;28;20174;-80
2023/03/14 08:22:14;;;;;;;3.40;2.13;;;13.70;99.90;;;;;;5118526;28;20197;-85
2023/03/14 08:24:40;;;;;;;3.97;2.30;;;13.80;99.90;;;;;;5123688;28;20557;-83
2023/03/14 08:27:06;;;;;;;1.90;1.80;;;14.00;99.90;;;;;;5114802;28;20598;-84
2023/03/14 08:29:32;;;;;;;5.03;2.10;;;14.20;99.90;;;;;;5115675;28;20286;-86
2023/03/14 08:31:58;;;;;;;3.83;2.10;;;14.20;99.90;;;;;;5115788;28;20292;-81
2023/03/14 08:34:24;;;;;;;1.67;1.53;;;14.10;99.90;;;;;;5115668;28;20564;-77
2023/03/14 08:36:50;;;;;;;2.47;1.63;;;14.20;99.90;;;;;;5114216;28;20645;-84
2023/03/14 08:39:15;;;;;;;3.13;1.70;;;14.30;99.90;;;;;;5114304;28;20182;-77
2023/03/14 08:41:42;;;;;;;1.53;1.43;;;14.30;99.90;;;;;;5115250;28;20171;-76
2023/03/14 08:44:09;;;;;;;3.90;1.77;;;14.30;99.90;;;;;;5104786;28;20238;-83
2023/03/14 08:46:35;;;;;;;3.30;1.57;;;14.40;99.90;;;;;;5093444;28;20171;-81
2023/03/14 08:49:01;;;;;;;1.93;1.43;;;14.60;99.90;;;;;;5093392;28;20218;-80
2023/03/14 08:51:27;;;;;;;2.63;1.67;;;14.60;99.90;;;;;;5098493;28;20197;-79
2023/03/14 08:53:52;;;;;;;1.83;1.50;;;14.60;99.80;;;;;;5098009;28;20234;-75
2023/03/14 08:56:18;;;;;;;3.23;1.93;;;14.70;99.70;;;;;;5098118;28;20542;-79
2023/03/14 08:58:44;;;;;;;1.57;1.47;;;14.80;99.90;;;;;;5093872;28;20232;-76
2023/03/14 09:01:11;;;;;;;2.93;1.80;;;14.90;99.40;;;;;;5096056;28;20216;-76
2023/03/14 09:03:37;;;;;;;1.97;1.70;;;15.10;99.30;;;;;;5101016;28;20257;-78
2023/03/14 09:06:05;;;;;;;4.03;1.70;;;15.40;99.00;;;;;;5094349;28;20183;-87
2023/03/14 09:08:31;;;;;;;2.10;1.53;;;15.50;98.90;;;;;;5093717;28;20220;-77
2023/03/14 09:10:57;;;;;;;2.37;1.70;;;15.60;98.60;;;;;;5077132;28;20274;-78
2023/03/14 09:13:23;;;;;;;3.00;2.00;;;15.60;98.50;;;;;;5096379;28;20198;-77
2023/03/14 09:15:57;;;;;;;2.17;1.90;;;15.70;98.50;;;;;;5112590;28;20193;-80
2023/03/14 09:18:23;;;;;;;2.67;1.80;;;16.00;98.40;;;;;;5107061;28;20178;-78
2023/03/14 09:20:49;;;;;;;1.93;1.30;;;16.10;98.20;;;;;;5095725;28;20184;-84
2023/03/14 09:23:15;;;;;;;2.00;1.87;;;16.10;97.60;;;;;;5076053;28;20182;-79
2023/03/14 09:25:41;;;;;;;1.73;1.57;;;16.30;97.60;;;;;;5075947;28;20281;-77
2023/03/14 09:28:07;;;;;;;1.50;1.40;;;16.40;97.40;;;;;;5094798;28;20228;-78
2023/03/14 09:30:34;;;;;;;1.40;1.30;;;16.30;97.50;;;;;;5094658;28;20170;-75
2023/03/14 09:32:59;;;;;;;1.20;1.20;;;16.40;97.60;;;;;;5095345;28;20580;-83
2023/03/14 09:35:25;;;;;;;2.13;1.23;;;16.30;97.20;;;;;;5095938;28;20175;-86
2023/03/14 09:37:51;;;;;;;2.17;1.20;;;16.20;97.10;;;;;;5103435;28;20200;-78
2023/03/14 09:40:20;;;;;;;1.57;1.17;;;16.00;97.30;;;;;;5102381;28;20194;-82
2023/03/14 09:42:50;;;;;;;2.20;1.67;;;15.80;97.50;;;;;;5098897;28;20162;-79
2023/03/14 09:45:27;;;;;;;3.00;2.20;;;15.70;97.50;;;;;;5120190;28;20680;-82
2023/03/14 09:47:55;;;;;;;2.90;1.50;;;15.50;97.70;;;;;;5119426;28;20172;-80
2023/03/14 09:50:21;;;;;;;2.00;1.30;;;15.50;97.70;;;;;;5120984;28;20170;-84
2023/03/14 09:52:52;;;;;;;2.50;1.20;;;15.40;97.60;;;;;;5121053;28;20185;-78
2023/03/14 09:55:21;;;;;;;1.57;1.40;;;15.20;97.60;;;;;;5117896;28;20158;-81
2023/03/14 09:57:50;;;;;;;1.50;1.30;;;15.10;97.70;;;;;;5117932;28;20202;-80
2023/03/14 10:00:19;;;;;;;1.40;1.30;;;15.00;97.70;;;;;;5117247;28;20660;-75
2023/03/14 10:02:54;;;;;;;1.20;1.10;;;14.90;97.60;;;;;;5117716;28;20217;-77
2023/03/14 10:05:22;;;;;;;2.23;1.50;;;14.80;97.70;;;;;;5107957;28;20173;-76
2023/03/14 10:07:48;;;;;;;1.80;1.07;;;14.80;97.70;;;;;;5120123;28;20224;-77
2023/03/14 10:10:17;;;;;;;2.73;1.30;;;14.80;97.80;;;;;;5099099;28;20276;-84
2023/03/14 10:12:55;;;;;;;6.50;1.47;;;14.80;97.70;;;;;;5099340;28;20264;-82
2023/03/14 10:15:29;;;;;;;1.20;1.20;;;14.80;97.70;;;;;;5120058;28;20159;-80
2023/03/14 10:17:55;;;;;;;2.23;1.13;;;15.00;97.50;;;;;;5123655;28;20162;-84
2023/03/14 10:20:32;;;;;;;3.93;1.73;;;15.20;97.50;;;;;;5122076;28;20176;-82
2023/03/14 10:23:19;;;;;;;3.60;1.30;;;15.40;97.30;;;;;;5124325;28;20161;-75
2023/03/14 10:26:02;;;;;;;4.03;1.80;;;15.50;97.00;;;;;;5121001;28;20225;-79
2023/03/14 10:28:31;;;;;;;1.90;1.73;;;15.80;97.20;;;;;;5117181;28;20189;-83
2023/03/14 10:30:57;;;;;;;3.63;2.00;;;16.00;97.40;;;;;;5118570;28;20625;-86
2023/03/14 10:33:29;;;;;;;2.33;2.00;;;16.00;97.60;;;;;;5121568;28;20621;-83
2023/03/14 10:36:01;;;;;;;7.10;2.50;;;15.90;97.60;;;;;;5129308;28;20163;-80
2023/03/14 10:38:32;;;;;;;4.03;2.20;;;16.10;97.40;;;;;;5120033;28;20166;-83
2023/03/14 10:40:59;;;;;;;2.07;1.67;;;16.20;96.80;;;;;;5117235;28;20218;-79
2023/03/14 10:43:35;;;;;;;2.50;2.20;;;16.40;96.50;;;;;;5115553;28;20245;-80
2023/03/14 10:46:08;;;;;;;2.13;1.50;;;16.70;96.60;;;;;;5084732;28;20188;-83
2023/03/14 10:48:41;;;;;;;4.03;1.33;;;16.80;95.80;;;;;;5097700;28;20201;-81
2023/03/14 10:51:28;;;;;;;2.13;1.70;;;16.90;95.60;;;;;;5109604;28;20166;-79
2023/03/14 10:54:14;;;;;;;2.67;1.40;;;16.80;95.60;;;;;;5103869;28;20169;-88
2023/03/14 10:56:41;;;;;;;2.07;1.60;;;16.80;95.70;;;;;;5079148;28;20162;-85
2023/03/14 10:59:13;;;;;;;1.73;1.63;;;16.80;95.10;;;;;;5078821;28;20175;-80
2023/03/14 11:01:51;;;;;;;1.33;1.20;;;16.50;95.40;;;;;;5096471;28;20162;-86
2023/03/14 11:04:41;;;;;;;3.47;1.00;;;16.40;94.50;;;;;;5096257;28;20249;-88
2023/03/14 11:07:35;;;;;;;1.40;1.03;;;16.30;93.50;;;;;;5095985;28;20914;-83
2023/03/14 11:10:16;;;;;;;2.80;1.10;;;16.40;92.30;;;;;;5097462;28;20251;-87
2023/03/14 11:13:06;;;;;;;1.70;0.60;;;16.30;92.00;;;;;;5079767;28;20184;-82
2023/03/14 11:15:35;;;;;;;1.20;0.50;;;16.30;91.20;;;;;;5079599;28;20262;-86
2023/03/14 11:18:26;;;;;;;1.53;0.67;;;16.30;90.90;;;;;;5079151;28;20179;-85
2023/03/14 11:21:11;;;;;;;0.47;0.40;;;16.40;91.00;;;;;;5080466;28;20179;-81
2023/03/14 11:24:12;;;;;;;0.83;0.40;;;16.50;91.00;;;;;;5097975;28;20158;-82
2023/03/14 11:26:52;;;;;;;0.60;0.60;;;16.40;90.90;;;;;;5089781;28;20183;-76
2023/03/14 11:29:53;;;;;;;0.50;0.50;;;16.50;91.00;;;;;;5096193;28;20202;-78
2023/03/14 11:32:24;;;;;;;0.50;0.50;;;16.70;90.50;;;;;;5095820;28;20171;-80
2023/03/14 11:34:53;;;;;;;0.47;0.47;;;16.90;90.00;;;;;;5095693;28;20194;-80
2023/03/14 11:37:39;;;;;;;0.70;0.40;;;17.10;90.00;;;;;;5096401;28;20230;-85
2023/03/14 11:40:25;;;;;;;0.87;0.40;;;17.30;88.60;;;;;;5096297;28;20212;-83
2023/03/14 11:43:06;;;;;;;0.33;0.27;;;17.40;88.90;;;;;;5106154;28;20186;-82
2023/03/14 11:45:38;;;;;;;0.30;0.30;;;17.40;87.80;;;;;;5085843;28;20174;-79
2023/03/14 11:48:15;;;;;;;0.57;0.40;;;17.50;87.80;;;;;;5078859;28;20213;-84
2023/03/14 11:50:46;;;;;;;0.43;0.43;;;17.40;88.20;;;;;;5077371;28;20189;-87
2023/03/14 11:53:22;;;;;;;0.37;0.37;;;17.20;88.10;;;;;;5096811;28;20269;-82
2023/03/14 11:55:49;;;;;;;0.27;0.27;;;17.00;88.10;;;;;;5100864;28;20180;-83
2023/03/14 11:58:25;;;;;;;0.37;0.37;;;16.90;87.40;;;;;;5102053;28;20198;-78
2023/03/14 12:00:54;;;;;;;3.37;0.27;;;16.90;87.70;;;;;;5096956;28;20150;-75
2023/03/14 12:03:29;;;;;;;0.47;0.47;;;17.10;88.10;;;;;;5095327;28;20165;-82
2023/03/14 12:06:04;;;;;;;0.40;0.40;;;17.20;87.60;;;;;;5081305;28;20176;-82
2023/03/14 12:08:45;;;;;;;0.63;0.63;;;17.20;87.90;;;;;;5102041;28;20250;-80
2023/03/14 12:11:40;;;;;;;2.30;0.70;;;17.20;88.10;;;;;;5103245;28;20233;-76
2023/03/14 12:14:21;;;;;;;0.40;0.40;;;17.30;87.70;;;;;;5096805;28;20174;-81
2023/03/14 12:16:48;;;;;;;0.30;0.30;;;17.40;87.60;;;;;;5093887;28;20176;-76
2023/03/14 12:19:18;;;;;;;0.33;0.33;;;17.50;87.40;;;;;;5093399;28;20258;-81
2023/03/14 12:22:12;;;;;;;1.43;0.40;;;17.50;87.00;;;;;;5093903;28;20625;-77
2023/03/14 12:24:44;;;;;;;0.30;0.30;;;17.50;86.80;;;;;;5082639;28;20205;-82
2023/03/14 12:27:33;;;;;;;0.30;0.30;;;17.40;86.20;;;;;;5110549;28;20548;-77
2023/03/14 12:30:01;;;;;;;0.40;0.40;;;17.20;86.80;;;;;;5105547;28;20270;-87
2023/03/14 12:32:26;;;;;;;0.47;0.47;;;17.20;87.80;;;;;;5096301;28;20184;-77
2023/03/14 12:34:52;;;;;;;0.30;0.30;;;17.10;87.30;;;;;;5099532;28;20261;-82
2023/03/14 12:37:36;;;;;;;0.50;0.50;;;16.90;87.50;;;;;;5093913;28;20562;-80
2023/03/14 12:40:09;;;;;;;0.97;0.70;;;16.70;86.40;;;;;;5094373;28;20177;-82
2023/03/14 12:42:53;;;;;;;0.90;0.90;;;16.40;85.80;;;;;;5075913;28;20185;-78
2023/03/14 12:45:33;;;;;;;0.60;0.60;;;16.30;87.10;;;;;;5094186;28;20182;-78
2023/03/14 12:48:24;;;;;;;0.70;0.70;;;16.10;88.20;;;;;;5093779;28;20622;-84
2023/03/14 12:51:03;;;;;;;1.93;0.80;;;15.90;87.60;;;;;;5094007;28;20190;-80
2023/03/14 12:53:53;;;;;;;0.80;0.80;;;16.00;87.00;;;;;;5076130;28;20173;-76
2023/03/14 12:56:40;;;;;;;0.60;0.60;;;15.90;85.70;;;;;;5093576;28;20224;-75
2023/03/14 12:59:17;;;;;;;0.20;0.20;;;15.90;86.00;;;;;;5094099;28;20166;-82
2023/03/14 13:01:53;;;;;;;0.30;0.30;;;15.80;86.50;;;;;;5093692;28;20171;-82
2023/03/14 13:04:26;;;;;;;0.50;0.50;;;15.60;87.20;;;;;;5094261;28;20692;-86